createdAt,value
2023-03-26T00:01:05.770Z,1.70
2023-03-26T00:04:23.336Z,1.50
2023-03-26T00:07:31.202Z,1.50
2023-03-26T00:10:49.786Z,1.50
2023-03-26T00:13:59.003Z,1.80
2023-03-26T00:17:23.804Z,2.20
2023-03-26T00:20:33.404Z,1.80
2023-03-26T00:23:58.012Z,2.30
2023-03-26T00:27:05.857Z,1.80
2023-03-26T00:30:23.813Z,2.20
2023-03-26T00:33:32.853Z,1.80
2023-03-26T00:36:50.548Z,1.80
2023-03-26T00:40:06.967Z,1.90
2023-03-26T00:43:26.668Z,1.80
2023-03-26T00:46:36.402Z,1.90
2023-03-26T00:49:55.110Z,1.70
2023-03-26T00:53:03.273Z,1.70
2023-03-26T00:56:28.237Z,1.70
2023-03-26T00:59:35.969Z,1.70
2023-03-26T01:02:45.231Z,1.60
2023-03-26T01:05:59.176Z,1.80
2023-03-26T01:09:16.379Z,1.60
2023-03-26T01:12:28.219Z,1.80
2023-03-26T01:15:39.330Z,1.60
2023-03-26T01:18:47.283Z,1.80
2023-03-26T01:21:55.477Z,1.80
2023-03-26T01:25:03.854Z,1.70
2023-03-26T01:28:14.247Z,1.60
2023-03-26T01:31:37.181Z,1.80
2023-03-26T01:35:01.632Z,1.60
2023-03-26T01:38:26.025Z,1.50
2023-03-26T01:41:44.767Z,1.70
2023-03-26T01:45:00.800Z,1.60
2023-03-26T01:48:10.443Z,1.80
2023-03-26T01:51:30.991Z,1.80
2023-03-26T01:54:39.251Z,1.70
2023-03-26T01:58:01.327Z,1.70
2023-03-26T02:01:27.423Z,1.60
2023-03-26T02:04:44.315Z,1.70
2023-03-26T02:07:58.769Z,1.90
2023-03-26T02:11:13.126Z,1.50
2023-03-26T02:14:22.215Z,1.60
2023-03-26T02:17:32.647Z,1.60
2023-03-26T02:20:40.851Z,1.60
2023-03-26T02:23:50.880Z,1.50
2023-03-26T02:27:02.337Z,1.40
2023-03-26T02:30:15.089Z,1.50
2023-03-26T02:33:22.954Z,1.50
2023-03-26T02:36:31.787Z,1.60
2023-03-26T02:39:40.420Z,1.50
2023-03-26T02:42:48.698Z,1.40
2023-03-26T02:45:56.679Z,1.80
2023-03-26T02:49:04.842Z,1.50
2023-03-26T02:52:12.825Z,1.40
2023-03-26T02:55:20.808Z,1.40
2023-03-26T02:58:30.367Z,1.40
2023-03-26T03:01:43.043Z,1.60
2023-03-26T03:04:52.157Z,1.50
2023-03-26T03:08:00.157Z,1.40
2023-03-26T03:11:14.785Z,1.70
2023-03-26T03:14:22.832Z,1.80
2023-03-26T03:17:30.855Z,1.70
2023-03-26T03:20:38.829Z,1.60
2023-03-26T03:23:46.949Z,1.70
2023-03-26T03:26:56.976Z,1.40
2023-03-26T03:30:05.293Z,1.60
2023-03-26T03:33:13.842Z,1.60
2023-03-26T03:36:24.469Z,1.70
2023-03-26T03:39:32.301Z,2.00
2023-03-26T03:42:40.918Z,2.00
2023-03-26T03:45:48.718Z,2.20
2023-03-26T03:48:56.817Z,2.00
2023-03-26T03:52:04.795Z,1.70
2023-03-26T03:55:14.156Z,1.70
2023-03-26T03:58:22.346Z,1.70
2023-03-26T04:01:30.935Z,1.70
2023-03-26T04:04:40.273Z,1.70
2023-03-26T04:07:49.129Z,1.50
2023-03-26T04:10:57.028Z,1.60
2023-03-26T04:14:04.729Z,1.50
2023-03-26T04:17:13.641Z,1.60
2023-03-26T04:20:22.099Z,1.70
2023-03-26T04:23:30.411Z,1.50
2023-03-26T04:26:38.539Z,1.50
2023-03-26T04:29:50.424Z,1.40
2023-03-26T04:33:04.242Z,1.50
2023-03-26T04:36:16.074Z,1.70
2023-03-26T04:39:29.629Z,1.50
2023-03-26T04:42:37.952Z,1.60
2023-03-26T04:45:48.086Z,1.60
2023-03-26T04:52:03.601Z,1.50
2023-03-26T04:55:25.841Z,1.60
2023-03-26T04:58:34.137Z,1.70
2023-03-26T05:01:42.341Z,1.50
2023-03-26T05:04:50.646Z,1.60
2023-03-26T05:07:58.791Z,1.60
2023-03-26T05:11:11.756Z,1.60
2023-03-26T05:14:20.424Z,1.60
2023-03-26T05:17:30.995Z,1.50
2023-03-26T05:20:39.208Z,1.40
2023-03-26T05:23:46.908Z,1.50
2023-03-26T05:26:55.113Z,1.60
2023-03-26T05:30:08.742Z,1.60
2023-03-26T05:33:17.960Z,1.50
2023-03-26T05:36:26.144Z,3.00
2023-03-26T05:39:35.655Z,3.10
2023-03-26T05:42:44.459Z,2.90
2023-03-26T05:45:53.518Z,1.70
2023-03-26T05:49:01.684Z,1.70
2023-03-26T05:52:09.670Z,1.90
2023-03-26T05:55:18.579Z,1.50
2023-03-26T05:58:27.100Z,1.40
2023-03-26T06:01:34.856Z,1.80
2023-03-26T06:04:45.795Z,1.50
2023-03-26T06:07:54.103Z,1.50
2023-03-26T06:11:08.437Z,1.60
2023-03-26T06:14:16.376Z,1.60
2023-03-26T06:17:24.552Z,1.60
2023-03-26T06:20:32.361Z,1.50
2023-03-26T06:23:40.425Z,1.40
2023-03-26T06:26:48.548Z,1.50
2023-03-26T06:29:56.861Z,1.50
2023-03-26T06:33:04.716Z,1.40
2023-03-26T06:36:13.740Z,1.70
2023-03-26T06:39:21.861Z,1.60
2023-03-26T06:43:06.873Z,1.50
2023-03-26T06:45:57.495Z,1.70
2023-03-26T06:49:05.611Z,1.60
2023-03-26T06:52:13.634Z,1.60
2023-03-26T06:55:21.699Z,1.60
2023-03-26T06:58:29.988Z,1.30
2023-03-26T07:01:38.372Z,1.50
2023-03-26T07:04:46.500Z,1.40
2023-03-26T07:07:54.547Z,1.30
2023-03-26T07:11:02.684Z,1.50
2023-03-26T07:14:10.929Z,1.30
2023-03-26T07:17:18.647Z,1.50
2023-03-26T07:20:27.515Z,1.30
2023-03-26T07:23:37.017Z,1.40
2023-03-26T07:26:57.382Z,1.40
2023-03-26T07:30:14.709Z,1.50
2023-03-26T07:33:33.924Z,1.30
2023-03-26T07:36:56.576Z,1.30
2023-03-26T07:40:17.699Z,1.40
2023-03-26T07:43:49.569Z,1.40
2023-03-26T07:47:00.118Z,1.40
2023-03-26T07:50:17.698Z,1.30
2023-03-26T07:53:28.149Z,1.50
2023-03-26T07:59:53.765Z,1.60
2023-03-26T08:03:48.763Z,1.40
2023-03-26T08:07:06.321Z,1.40
2023-03-26T08:10:22.364Z,1.30
2023-03-26T08:13:40.739Z,1.60
2023-03-26T08:16:56.080Z,1.50
2023-03-26T08:20:20.525Z,1.30
2023-03-26T08:23:38.372Z,1.40
2023-03-26T08:27:09.078Z,1.40
2023-03-26T08:30:23.855Z,1.40
2023-03-26T08:33:35.494Z,1.40
2023-03-26T08:36:45.268Z,1.50
2023-03-26T08:39:53.129Z,1.40
2023-03-26T08:43:39.301Z,1.40
2023-03-26T08:47:33.190Z,1.80
2023-03-26T08:51:28.058Z,1.60
2023-03-26T08:55:06.243Z,1.70
2023-03-26T08:58:47.317Z,1.50
2023-03-26T09:02:35.742Z,1.50
2023-03-26T09:06:17.042Z,1.80
2023-03-26T09:10:32.120Z,1.40
2023-03-26T09:14:18.246Z,1.60
2023-03-26T09:18:15.797Z,1.50
2023-03-26T09:22:11.265Z,1.50
2023-03-26T09:25:54.526Z,1.60
2023-03-26T09:30:06.887Z,1.70
2023-03-26T09:34:01.600Z,1.80
2023-03-26T09:37:26.843Z,1.60
2023-03-26T09:40:49.171Z,1.50
2023-03-26T09:44:57.879Z,1.50
2023-03-26T09:48:32.089Z,1.60
2023-03-26T09:52:03.869Z,1.40
2023-03-26T09:55:43.871Z,1.50
2023-03-26T09:59:29.407Z,1.70
2023-03-26T10:03:14.639Z,1.80
2023-03-26T10:06:54.269Z,1.60
2023-03-26T10:10:14.108Z,1.40
2023-03-26T10:16:53.822Z,1.30
2023-03-26T10:20:35.326Z,1.50
2023-03-26T10:24:19.951Z,1.40
2023-03-26T10:27:43.304Z,1.50
2023-03-26T10:31:11.937Z,1.40
2023-03-26T10:34:56.789Z,1.40
2023-03-26T10:38:21.459Z,1.50
2023-03-26T10:41:41.037Z,1.20
2023-03-26T10:45:28.598Z,1.40
2023-03-26T10:48:56.793Z,1.40
2023-03-26T10:52:10.770Z,1.40
2023-03-26T10:55:29.106Z,1.70
2023-03-26T10:58:48.791Z,1.50
2023-03-26T11:02:29.332Z,1.50
2023-03-26T11:05:56.218Z,1.50
2023-03-26T11:09:21.178Z,1.30
2023-03-26T11:12:39.651Z,1.30
2023-03-26T11:15:54.586Z,1.70
2023-03-26T11:19:06.410Z,1.60
2023-03-26T11:22:31.194Z,1.50
2023-03-26T11:26:03.546Z,1.70
2023-03-26T11:29:31.281Z,1.60
2023-03-26T11:32:47.276Z,1.50
2023-03-26T11:36:02.827Z,1.40
2023-03-26T11:39:15.547Z,1.40
2023-03-26T11:42:26.977Z,1.50
2023-03-26T11:45:40.875Z,1.50
2023-03-26T11:48:53.942Z,1.50
2023-03-26T11:52:03.865Z,1.40
2023-03-26T11:55:16.613Z,1.80
2023-03-26T11:58:40.245Z,1.60
2023-03-26T12:01:58.330Z,3.50
2023-03-26T12:05:20.423Z,1.80
2023-03-26T12:08:40.401Z,1.60
2023-03-26T12:11:50.871Z,1.60
2023-03-26T12:14:59.891Z,1.40
2023-03-26T12:18:28.061Z,1.60
2023-03-26T12:21:49.729Z,1.40
2023-03-26T12:25:15.523Z,1.40
2023-03-26T12:28:33.889Z,1.50
2023-03-26T12:32:05.002Z,1.80
2023-03-26T12:35:26.879Z,1.30
2023-03-26T12:38:39.258Z,2.50
2023-03-26T12:44:47.167Z,2.30
2023-03-26T12:45:30.085Z,1.80
2023-03-26T12:48:38.663Z,1.50
2023-03-26T12:51:57.009Z,1.50
2023-03-26T12:55:23.872Z,1.50
2023-03-26T12:59:04.616Z,1.20
2023-03-26T13:02:44.104Z,1.40
2023-03-26T13:06:09.341Z,1.50
2023-03-26T13:09:46.945Z,1.50
2023-03-26T13:13:10.023Z,1.60
2023-03-26T13:16:30.049Z,1.80
2023-03-26T13:19:48.169Z,1.40
2023-03-26T13:23:08.454Z,1.30
2023-03-26T13:26:42.994Z,1.40
2023-03-26T13:29:59.629Z,1.20
2023-03-26T13:33:27.223Z,1.50
2023-03-26T13:36:48.184Z,1.40
2023-03-26T13:40:17.498Z,1.50
2023-03-26T13:43:48.621Z,1.20
2023-03-26T13:47:03.182Z,1.30
2023-03-26T13:50:25.264Z,1.20
2023-03-26T13:53:43.433Z,1.30
2023-03-26T13:56:59.642Z,1.20
2023-03-26T14:00:17.344Z,1.30
2023-03-26T14:03:33.716Z,1.20
2023-03-26T14:06:54.254Z,1.50
2023-03-26T14:10:09.597Z,1.50
2023-03-26T14:13:23.880Z,1.40
2023-03-26T14:16:41.981Z,1.20
2023-03-26T14:24:50.521Z,1.30
2023-03-26T14:28:20.487Z,1.30
2023-03-26T14:31:38.010Z,1.70
2023-03-26T14:35:08.355Z,1.20
2023-03-26T14:38:54.956Z,1.00
2023-03-26T14:42:15.923Z,1.20
2023-03-26T14:49:40.723Z,1.20
2023-03-26T14:53:00.841Z,1.50
2023-03-26T14:56:49.880Z,1.40
2023-03-26T15:00:45.963Z,1.20
2023-03-26T15:04:55.085Z,1.30
2023-03-26T15:08:53.632Z,1.60
2023-03-26T15:12:16.697Z,1.20
2023-03-26T15:15:45.817Z,1.30
2023-03-26T15:19:45.734Z,1.70
2023-03-26T15:23:41.100Z,1.40
2023-03-26T15:27:39.466Z,1.20
2023-03-26T15:31:37.146Z,1.30
2023-03-26T15:34:43.898Z,1.30
2023-03-26T15:38:49.451Z,1.40
2023-03-26T15:42:10.379Z,1.30
2023-03-26T15:45:14.926Z,1.30
2023-03-26T15:48:54.054Z,1.40
2023-03-26T15:52:14.210Z,1.30
2023-03-26T15:55:36.643Z,1.40
2023-03-26T15:58:57.078Z,1.30
2023-03-26T16:02:21.025Z,1.50
2023-03-26T16:06:10.081Z,1.70
2023-03-26T16:09:39.105Z,2.20
2023-03-26T16:13:12.992Z,2.20
2023-03-26T16:16:55.510Z,1.80
2023-03-26T16:20:31.670Z,1.70
2023-03-26T16:23:58.931Z,2.00
2023-03-26T16:27:36.970Z,2.30
2023-03-26T16:31:10.793Z,2.50
2023-03-26T16:34:48.832Z,3.20
2023-03-26T16:38:14.858Z,4.30
2023-03-26T16:41:27.472Z,3.40
2023-03-26T16:44:49.557Z,2.20
2023-03-26T16:48:08.577Z,2.20
2023-03-26T16:51:28.233Z,2.00
2023-03-26T16:58:05.923Z,1.50
2023-03-26T17:04:37.308Z,2.20
2023-03-26T17:07:53.232Z,2.50
2023-03-26T17:11:10.475Z,4.10
2023-03-26T17:14:36.467Z,5.40
2023-03-26T17:18:01.295Z,4.60
2023-03-26T17:21:18.346Z,5.10
2023-03-26T17:24:41.051Z,5.90
2023-03-26T17:27:46.439Z,3.80
2023-03-26T17:31:07.793Z,4.00
2023-03-26T17:34:46.641Z,2.80
2023-03-26T17:37:55.978Z,1.90
2023-03-26T17:41:04.280Z,2.20
2023-03-26T17:44:41.794Z,2.80
2023-03-26T17:47:58.989Z,3.20
2023-03-26T17:51:23.727Z,2.90
2023-03-26T17:54:35.987Z,2.90
2023-03-26T17:57:52.004Z,3.40
2023-03-26T18:01:15.802Z,3.30
2023-03-26T18:04:34.768Z,3.00
2023-03-26T18:08:14.702Z,2.90
2023-03-26T18:15:15.364Z,2.70
2023-03-26T18:18:29.741Z,3.50
2023-03-26T18:21:43.744Z,2.50
2023-03-26T18:24:52.991Z,2.60
2023-03-26T18:28:02.081Z,2.70
2023-03-26T18:31:21.676Z,2.80
2023-03-26T18:34:33.339Z,3.10
2023-03-26T18:37:44.999Z,4.00
2023-03-26T18:40:57.083Z,3.00
2023-03-26T18:44:13.449Z,2.40
2023-03-26T18:47:21.915Z,2.50
2023-03-26T18:50:37.190Z,2.70
2023-03-26T18:53:55.207Z,3.80
2023-03-26T18:57:15.001Z,7.10
2023-03-26T19:00:30.538Z,5.90
2023-03-26T19:03:43.912Z,3.20
2023-03-26T19:06:54.978Z,3.20
2023-03-26T19:10:06.439Z,3.20
2023-03-26T19:13:21.462Z,3.90
2023-03-26T19:16:36.815Z,2.50
2023-03-26T19:19:45.315Z,2.60
2023-03-26T19:22:58.048Z,2.60
2023-03-26T19:26:09.495Z,2.60
2023-03-26T19:29:29.436Z,2.40
2023-03-26T19:35:45.036Z,3.60
2023-03-26T19:39:04.847Z,4.40
2023-03-26T19:42:19.795Z,3.40
2023-03-26T19:45:28.404Z,4.10
2023-03-26T19:48:45.527Z,6.00
2023-03-26T19:52:03.800Z,4.40
2023-03-26T19:55:25.250Z,3.70
2023-03-26T19:58:35.608Z,3.20
2023-03-26T20:01:43.432Z,3.10
2023-03-26T20:04:51.300Z,3.00
2023-03-26T20:08:03.187Z,3.00
2023-03-26T20:11:24.087Z,3.10
2023-03-26T20:14:32.794Z,2.80
2023-03-26T20:17:42.856Z,3.10
2023-03-26T20:20:51.053Z,2.90
2023-03-26T20:24:00.633Z,2.60
2023-03-26T20:27:08.760Z,2.90
2023-03-26T20:30:27.530Z,2.70
2023-03-26T20:33:45.622Z,2.90
2023-03-26T20:36:56.215Z,2.70
2023-03-26T20:40:04.778Z,3.00
2023-03-26T20:43:18.477Z,3.10
2023-03-26T20:46:31.248Z,3.10
2023-03-26T20:49:40.380Z,3.00
2023-03-26T20:52:49.483Z,3.40
2023-03-26T20:55:57.262Z,3.50
2023-03-26T20:59:11.047Z,2.80
2023-03-26T21:02:20.516Z,2.40
2023-03-26T21:05:30.875Z,2.30
2023-03-26T21:08:41.347Z,2.00
2023-03-26T21:12:02.122Z,2.00
2023-03-26T21:15:23.123Z,1.80
2023-03-26T21:18:35.783Z,1.70
2023-03-26T21:21:47.661Z,2.10
2023-03-26T21:25:10.504Z,1.60
2023-03-26T21:28:41.366Z,1.40
2023-03-26T21:31:54.016Z,1.40
2023-03-26T21:35:05.226Z,1.50
2023-03-26T21:38:20.269Z,1.60
2023-03-26T21:41:43.709Z,1.50
2023-03-26T21:44:52.829Z,1.70
2023-03-26T21:48:01.813Z,1.70
2023-03-26T21:51:14.964Z,1.70
2023-03-26T21:54:33.059Z,1.50
2023-03-26T21:58:04.201Z,1.80
2023-03-26T22:01:34.773Z,1.70
2023-03-26T22:07:58.595Z,1.80
2023-03-26T22:11:09.258Z,1.80
2023-03-26T22:14:17.898Z,1.60
2023-03-26T22:17:26.222Z,1.80
2023-03-26T22:20:34.630Z,1.60
2023-03-26T22:23:42.801Z,1.60
2023-03-26T22:30:24.798Z,1.60
2023-03-26T22:33:32.770Z,1.40
2023-03-26T22:36:40.957Z,1.60
2023-03-26T22:39:48.898Z,1.60
2023-03-26T22:42:58.962Z,1.60
2023-03-26T22:46:09.080Z,1.50
2023-03-26T22:49:17.854Z,1.90
2023-03-26T22:52:26.359Z,2.20
2023-03-26T22:55:34.490Z,2.40
2023-03-26T22:58:42.906Z,2.80
2023-03-26T23:01:50.993Z,3.10
2023-03-26T23:04:59.654Z,2.10
2023-03-26T23:08:09.182Z,2.10
2023-03-26T23:11:19.654Z,2.10
2023-03-26T23:14:28.749Z,1.80
2023-03-26T23:17:39.785Z,2.00
2023-03-26T23:20:55.647Z,2.30
2023-03-26T23:24:04.659Z,1.90
2023-03-26T23:27:13.122Z,1.70
2023-03-26T23:30:21.901Z,1.90
2023-03-26T23:33:34.427Z,1.80
2023-03-26T23:36:42.636Z,2.20
2023-03-26T23:39:51.003Z,2.30
2023-03-26T23:42:59.091Z,2.20
2023-03-26T23:46:10.889Z,2.00
2023-03-26T23:49:19.086Z,2.00
2023-03-26T23:52:27.674Z,1.90
2023-03-26T23:55:36.748Z,1.90
2023-03-26T23:58:45.432Z,2.20
